createdAt,value
2022-10-06T00:01:09.060Z,9.20
2022-10-06T00:03:41.831Z,8.80
2022-10-06T00:06:13.182Z,8.30
2022-10-06T00:08:42.178Z,7.30
2022-10-06T00:11:12.214Z,8.20
2022-10-06T00:13:40.273Z,7.90
2022-10-06T00:16:14.033Z,8.00
2022-10-06T00:18:41.447Z,8.30
2022-10-06T00:21:08.892Z,8.30
2022-10-06T00:23:36.640Z,8.20
2022-10-06T00:26:04.205Z,8.90
2022-10-06T00:28:32.265Z,8.10
2022-10-06T00:31:02.613Z,8.10
2022-10-06T00:33:30.373Z,8.00
2022-10-06T00:35:58.528Z,8.60
2022-10-06T00:38:27.655Z,8.60
2022-10-06T00:40:55.727Z,8.40
2022-10-06T00:44:10.789Z,8.40
2022-10-06T00:46:53.053Z,7.70
2022-10-06T00:49:31.587Z,8.00
2022-10-06T00:52:07.124Z,8.10
2022-10-06T00:54:35.916Z,7.80
2022-10-06T00:57:04.924Z,7.40
2022-10-06T00:59:34.700Z,5.60
2022-10-06T01:02:08.571Z,5.00
2022-10-06T01:04:40.251Z,4.90
2022-10-06T01:07:08.087Z,4.70
2022-10-06T01:09:37.509Z,5.10
2022-10-06T01:12:07.463Z,4.50
2022-10-06T01:14:37.608Z,5.00
2022-10-06T01:17:21.330Z,5.00
2022-10-06T01:20:11.024Z,4.80
2022-10-06T01:22:48.217Z,5.70
2022-10-06T01:25:17.955Z,5.10
2022-10-06T01:27:53.214Z,5.10
2022-10-06T01:30:32.299Z,4.90
2022-10-06T01:32:59.761Z,5.20
2022-10-06T01:35:27.621Z,4.30
2022-10-06T01:37:58.302Z,4.70
2022-10-06T01:42:57.448Z,5.10
2022-10-06T01:45:26.804Z,6.90
2022-10-06T01:47:54.195Z,6.60
2022-10-06T01:50:22.324Z,9.20
2022-10-06T01:52:49.740Z,10.40
2022-10-06T01:55:17.228Z,11.70
2022-10-06T01:57:45.307Z,12.00
2022-10-06T02:00:14.972Z,10.00
2022-10-06T02:02:43.076Z,8.20
2022-10-06T02:05:10.988Z,7.30
2022-10-06T02:07:41.445Z,7.70
2022-10-06T02:10:09.424Z,7.10
2022-10-06T02:12:37.531Z,6.60
2022-10-06T02:15:07.712Z,6.60
2022-10-06T02:17:35.052Z,6.70
2022-10-06T02:20:02.444Z,7.00
2022-10-06T02:22:30.520Z,7.00
2022-10-06T02:24:57.956Z,7.00
2022-10-06T02:27:25.416Z,7.00
2022-10-06T02:29:53.297Z,7.40
2022-10-06T02:32:20.718Z,7.90
2022-10-06T02:34:49.699Z,7.10
2022-10-06T02:37:17.538Z,7.60
2022-10-06T02:39:45.106Z,7.10
2022-10-06T02:42:12.563Z,6.90
2022-10-06T02:44:40.197Z,6.80
2022-10-06T02:47:14.200Z,7.50
2022-10-06T02:49:41.944Z,7.00
2022-10-06T02:52:10.709Z,7.40
2022-10-06T02:54:38.144Z,7.00
2022-10-06T02:57:05.364Z,7.30
2022-10-06T02:59:33.775Z,7.90
2022-10-06T03:02:01.451Z,7.70
2022-10-06T03:04:29.326Z,8.00
2022-10-06T03:06:57.318Z,8.40
2022-10-06T03:11:55.260Z,7.60
2022-10-06T03:14:35.644Z,8.70
2022-10-06T03:17:03.551Z,7.70
2022-10-06T03:19:31.596Z,7.90
2022-10-06T03:21:59.224Z,7.40
2022-10-06T03:24:34.696Z,8.30
2022-10-06T03:27:02.944Z,7.60
2022-10-06T03:29:30.650Z,8.70
2022-10-06T03:31:58.545Z,8.50
2022-10-06T03:34:25.981Z,9.80
2022-10-06T03:36:54.986Z,10.30
2022-10-06T03:39:22.940Z,10.30
2022-10-06T03:41:50.737Z,11.40
2022-10-06T03:44:18.207Z,11.30
2022-10-06T03:46:46.072Z,12.10
2022-10-06T03:49:13.448Z,12.80
2022-10-06T03:51:41.695Z,12.90
2022-10-06T03:54:16.047Z,12.80
2022-10-06T03:56:45.129Z,14.00
2022-10-06T03:59:19.041Z,13.10
2022-10-06T04:01:48.480Z,15.10
2022-10-06T04:04:20.074Z,14.70
2022-10-06T04:06:50.856Z,15.60
2022-10-06T04:09:20.056Z,15.10
2022-10-06T04:11:48.300Z,15.70
2022-10-06T04:14:16.415Z,15.80
2022-10-06T04:16:50.664Z,15.50
2022-10-06T04:19:25.054Z,16.40
2022-10-06T04:21:55.679Z,16.50
2022-10-06T04:24:24.797Z,16.80
2022-10-06T04:26:52.815Z,17.40
2022-10-06T04:29:21.324Z,17.20
2022-10-06T04:31:53.514Z,16.60
2022-10-06T04:34:25.854Z,15.60
2022-10-06T04:36:54.139Z,14.70
2022-10-06T04:39:22.147Z,14.10
2022-10-06T04:41:49.441Z,12.60
2022-10-06T04:44:21.819Z,11.90
2022-10-06T04:46:49.631Z,11.20
2022-10-06T04:49:20.235Z,10.50
2022-10-06T04:51:49.902Z,8.90
2022-10-06T04:54:18.672Z,8.80
2022-10-06T04:56:46.720Z,8.90
2022-10-06T04:59:15.034Z,8.50
2022-10-06T05:01:44.288Z,7.80
2022-10-06T05:04:13.533Z,7.90
2022-10-06T05:06:44.152Z,8.40
2022-10-06T05:11:47.755Z,8.30
2022-10-06T05:14:17.745Z,10.00
2022-10-06T05:16:47.973Z,8.80
2022-10-06T05:19:16.126Z,7.90
2022-10-06T05:21:44.182Z,7.90
2022-10-06T05:24:15.912Z,8.20
2022-10-06T05:26:43.616Z,9.00
2022-10-06T05:29:13.533Z,6.70
2022-10-06T05:31:42.921Z,7.10
2022-10-06T05:34:10.875Z,9.10
2022-10-06T05:36:38.583Z,7.90
2022-10-06T05:39:07.153Z,8.50
2022-10-06T05:41:45.348Z,7.40
2022-10-06T05:44:14.183Z,7.40
2022-10-06T05:46:43.063Z,7.10
2022-10-06T05:49:12.446Z,7.70
2022-10-06T05:51:43.796Z,7.40
2022-10-06T05:54:31.986Z,7.30
2022-10-06T05:56:59.227Z,7.20
2022-10-06T05:59:26.905Z,6.60
2022-10-06T06:01:55.913Z,7.40
2022-10-06T06:04:42.498Z,7.70
2022-10-06T06:07:10.288Z,7.70
2022-10-06T06:09:38.811Z,7.90
2022-10-06T06:12:06.298Z,9.10
2022-10-06T06:15:07.796Z,9.30
2022-10-06T06:17:49.437Z,10.90
2022-10-06T06:20:16.846Z,10.40
2022-10-06T06:22:44.378Z,10.10
2022-10-06T06:25:12.603Z,10.70
2022-10-06T06:27:41.599Z,9.80
2022-10-06T06:30:10.131Z,10.50
2022-10-06T06:32:39.178Z,10.70
2022-10-06T06:35:07.298Z,11.20
2022-10-06T06:37:34.710Z,10.90
2022-10-06T06:40:02.687Z,11.80
2022-10-06T06:42:32.247Z,11.90
2022-10-06T06:45:18.471Z,15.10
2022-10-06T06:48:06.388Z,14.50
2022-10-06T06:50:34.279Z,13.00
2022-10-06T06:53:02.353Z,12.00
2022-10-06T06:55:30.247Z,15.20
2022-10-06T06:57:57.716Z,9.80
2022-10-06T07:00:25.147Z,9.60
2022-10-06T07:02:55.643Z,9.50
2022-10-06T07:05:22.994Z,8.60
2022-10-06T07:07:50.901Z,8.50
2022-10-06T07:10:18.290Z,9.60
2022-10-06T07:12:46.075Z,10.70
2022-10-06T07:15:32.126Z,8.60
2022-10-06T07:18:21.743Z,8.60
2022-10-06T07:21:07.898Z,7.50
2022-10-06T07:23:54.083Z,8.10
2022-10-06T07:26:21.481Z,7.00
2022-10-06T07:28:51.283Z,8.50
2022-10-06T07:31:19.225Z,6.40
2022-10-06T07:33:47.921Z,5.80
2022-10-06T07:36:16.326Z,5.00
2022-10-06T07:38:44.084Z,5.30
2022-10-06T07:41:19.968Z,4.80
2022-10-06T07:43:54.594Z,4.00
2022-10-06T07:46:23.814Z,4.20
2022-10-06T07:48:59.942Z,7.10
2022-10-06T07:51:27.911Z,4.10
2022-10-06T07:53:56.996Z,4.20
2022-10-06T07:56:34.499Z,4.40
2022-10-06T07:59:02.516Z,5.00
2022-10-06T08:01:30.690Z,4.50
2022-10-06T08:03:58.380Z,4.10
2022-10-06T08:06:26.035Z,4.10
2022-10-06T08:08:54.677Z,4.00
2022-10-06T08:11:22.364Z,3.80
2022-10-06T08:13:51.368Z,4.10
2022-10-06T08:16:22.238Z,7.00
2022-10-06T08:18:52.737Z,3.30
2022-10-06T08:21:29.664Z,4.50
2022-10-06T08:23:58.863Z,3.60
2022-10-06T08:26:27.637Z,4.10
2022-10-06T08:29:02.766Z,4.10
2022-10-06T08:31:31.569Z,3.70
2022-10-06T08:33:59.037Z,4.00
2022-10-06T08:36:31.308Z,3.90
2022-10-06T08:39:00.719Z,3.40
2022-10-06T08:41:45.617Z,3.90
2022-10-06T08:44:18.098Z,3.60
2022-10-06T08:47:00.120Z,3.30
2022-10-06T08:49:39.897Z,4.30
2022-10-06T08:52:47.029Z,3.70
2022-10-06T08:55:33.689Z,3.70
2022-10-06T08:58:38.596Z,4.00
2022-10-06T09:01:32.307Z,3.30
2022-10-06T09:04:01.537Z,4.40
2022-10-06T09:07:10.650Z,2.90
2022-10-06T09:10:25.699Z,3.20
2022-10-06T09:13:10.917Z,3.60
2022-10-06T09:15:48.754Z,3.30
2022-10-06T09:21:42.802Z,3.10
2022-10-06T09:24:16.690Z,3.40
2022-10-06T09:26:46.230Z,3.60
2022-10-06T09:29:14.369Z,3.10
2022-10-06T09:31:49.913Z,2.50
2022-10-06T09:34:22.625Z,3.10
2022-10-06T09:37:08.724Z,2.90
2022-10-06T09:39:39.195Z,3.10
2022-10-06T09:42:09.489Z,3.60
2022-10-06T09:44:52.742Z,3.60
2022-10-06T09:47:32.462Z,7.60
2022-10-06T09:50:11.806Z,4.90
2022-10-06T09:53:05.748Z,19.60
2022-10-06T09:55:43.154Z,5.80
2022-10-06T09:58:24.691Z,4.60
2022-10-06T10:01:00.321Z,4.90
2022-10-06T10:06:42.057Z,3.40
2022-10-06T10:09:21.498Z,2.90
2022-10-06T10:12:28.234Z,3.00
2022-10-06T10:15:37.814Z,3.50
2022-10-06T10:18:12.400Z,2.80
2022-10-06T10:20:55.354Z,2.60
2022-10-06T10:23:31.714Z,3.50
2022-10-06T10:26:44.545Z,2.90
2022-10-06T10:29:32.794Z,3.00
2022-10-06T10:32:34.526Z,2.90
2022-10-06T10:35:12.855Z,2.90
2022-10-06T10:38:02.025Z,2.00
2022-10-06T10:40:53.480Z,2.60
2022-10-06T10:43:44.611Z,2.20
2022-10-06T10:46:17.584Z,1.90
2022-10-06T10:48:52.606Z,1.60
2022-10-06T10:51:30.305Z,1.80
2022-10-06T10:54:14.893Z,1.60
2022-10-06T10:56:43.645Z,1.80
2022-10-06T10:59:31.391Z,1.50
2022-10-06T11:02:13.264Z,1.40
2022-10-06T11:04:46.703Z,1.50
2022-10-06T11:07:17.426Z,1.80
2022-10-06T11:09:53.457Z,2.00
2022-10-06T11:12:53.849Z,1.50
2022-10-06T11:15:53.327Z,1.60
2022-10-06T11:19:02.080Z,1.80
2022-10-06T11:22:13.309Z,2.10
2022-10-06T11:25:13.149Z,1.90
2022-10-06T11:27:49.775Z,2.20
2022-10-06T11:30:19.241Z,2.10
2022-10-06T11:33:02.071Z,1.90
2022-10-06T11:35:36.246Z,2.70
2022-10-06T11:38:16.046Z,1.80
2022-10-06T11:40:49.510Z,1.70
2022-10-06T11:43:46.918Z,2.40
2022-10-06T11:46:32.734Z,1.90
2022-10-06T11:49:27.842Z,1.70
2022-10-06T11:51:59.624Z,1.50
2022-10-06T11:55:03.749Z,1.70
2022-10-06T11:57:32.502Z,2.30
2022-10-06T12:00:06.070Z,3.00
2022-10-06T12:02:38.544Z,1.50
2022-10-06T12:05:49.377Z,1.90
2022-10-06T12:08:01.274Z,1.80
2022-10-06T12:10:28.674Z,1.90
2022-10-06T12:13:40.066Z,1.60
2022-10-06T12:17:05.602Z,1.80
2022-10-06T12:19:41.365Z,2.00
2022-10-06T12:22:21.940Z,2.10
2022-10-06T12:25:01.378Z,1.60
2022-10-06T12:27:52.520Z,2.30
2022-10-06T12:30:48.383Z,1.70
2022-10-06T12:33:17.777Z,1.60
2022-10-06T12:35:45.325Z,2.00
2022-10-06T12:38:30.947Z,1.70
2022-10-06T12:40:59.173Z,2.10
2022-10-06T12:43:35.109Z,1.90
2022-10-06T12:46:31.525Z,3.40
2022-10-06T12:49:11.841Z,2.20
2022-10-06T12:51:42.130Z,2.00
2022-10-06T12:54:23.485Z,1.90
2022-10-06T12:57:03.380Z,2.30
2022-10-06T12:59:33.508Z,1.60
2022-10-06T13:02:08.101Z,1.60
2022-10-06T13:05:21.936Z,2.00
2022-10-06T13:08:06.823Z,2.00
2022-10-06T13:10:34.510Z,2.00
2022-10-06T13:13:02.196Z,1.70
2022-10-06T13:15:35.470Z,1.90
2022-10-06T13:18:19.001Z,1.70
2022-10-06T13:20:51.907Z,1.80
2022-10-06T13:23:33.925Z,2.20
2022-10-06T13:26:21.431Z,2.20
2022-10-06T13:28:54.521Z,1.90
2022-10-06T13:31:31.119Z,2.10
2022-10-06T13:34:09.626Z,2.00
2022-10-06T13:36:40.230Z,2.20
2022-10-06T13:39:18.620Z,3.00
2022-10-06T13:42:03.870Z,2.90
2022-10-06T13:44:42.546Z,2.40
2022-10-06T13:47:20.431Z,3.20
2022-10-06T13:49:55.761Z,2.30
2022-10-06T13:52:50.271Z,2.90
2022-10-06T13:55:23.584Z,2.60
2022-10-06T13:58:03.399Z,2.20
2022-10-06T14:00:56.423Z,2.10
2022-10-06T14:03:39.659Z,2.20
2022-10-06T14:06:20.608Z,2.10
2022-10-06T14:08:58.257Z,2.20
2022-10-06T14:11:30.515Z,2.00
2022-10-06T14:14:01.821Z,2.20
2022-10-06T14:19:00.357Z,2.60
2022-10-06T14:21:41.008Z,2.30
2022-10-06T14:24:19.995Z,2.80
2022-10-06T14:26:54.285Z,1.80
2022-10-06T14:29:22.219Z,2.10
2022-10-06T14:31:50.140Z,2.40
2022-10-06T14:34:20.347Z,2.30
2022-10-06T14:36:54.599Z,1.90
2022-10-06T14:39:22.501Z,3.30
2022-10-06T14:41:49.934Z,2.40
2022-10-06T14:44:17.245Z,2.00
2022-10-06T14:46:48.342Z,2.40
2022-10-06T14:49:16.262Z,1.90
2022-10-06T14:51:45.497Z,2.20
2022-10-06T14:54:13.353Z,1.90
2022-10-06T14:56:41.783Z,2.90
2022-10-06T14:59:13.898Z,1.80
2022-10-06T15:01:41.846Z,2.10
2022-10-06T15:04:21.714Z,1.90
2022-10-06T15:07:07.725Z,2.40
2022-10-06T15:09:35.348Z,2.70
2022-10-06T15:12:03.400Z,3.30
2022-10-06T15:14:31.553Z,3.40
2022-10-06T15:16:59.846Z,3.40
2022-10-06T15:19:27.411Z,2.40
2022-10-06T15:21:55.029Z,2.60
2022-10-06T15:24:23.863Z,2.70
2022-10-06T15:27:10.039Z,2.60
2022-10-06T15:29:37.342Z,2.90
2022-10-06T15:32:05.714Z,2.60
2022-10-06T15:34:33.854Z,3.70
2022-10-06T15:37:01.764Z,2.80
2022-10-06T15:39:31.652Z,3.20
2022-10-06T15:41:59.176Z,3.30
2022-10-06T15:44:26.699Z,3.60
2022-10-06T15:46:56.226Z,4.10
2022-10-06T15:49:34.070Z,3.60
2022-10-06T15:52:03.227Z,4.20
2022-10-06T15:54:36.948Z,5.40
2022-10-06T15:57:08.501Z,4.80
2022-10-06T15:59:36.460Z,4.60
2022-10-06T16:02:09.111Z,4.60
2022-10-06T16:04:38.453Z,4.60
2022-10-06T16:07:15.113Z,5.60
2022-10-06T16:09:47.762Z,6.40
2022-10-06T16:12:18.415Z,5.70
2022-10-06T16:14:46.286Z,7.20
2022-10-06T16:17:14.813Z,7.30
2022-10-06T16:19:42.294Z,9.20
2022-10-06T16:22:13.284Z,8.10
2022-10-06T16:24:41.072Z,7.80
2022-10-06T16:27:15.520Z,8.00
2022-10-06T16:29:43.264Z,8.60
2022-10-06T16:32:10.964Z,7.50
2022-10-06T16:34:38.755Z,7.30
2022-10-06T16:37:06.263Z,7.60
2022-10-06T16:39:33.686Z,9.00
2022-10-06T16:42:01.169Z,8.10
2022-10-06T16:44:28.542Z,8.00
2022-10-06T16:46:56.117Z,8.30
2022-10-06T16:49:24.110Z,8.70
2022-10-06T16:51:51.718Z,8.30
2022-10-06T16:54:19.184Z,8.40
2022-10-06T16:56:51.204Z,8.00
2022-10-06T16:59:21.573Z,6.90
2022-10-06T17:01:50.149Z,5.40
2022-10-06T17:04:25.470Z,6.70
2022-10-06T17:06:55.103Z,7.50
2022-10-06T17:09:27.973Z,8.90
2022-10-06T17:11:57.945Z,8.10
2022-10-06T17:14:26.484Z,7.30
2022-10-06T17:16:57.896Z,7.10
2022-10-06T17:19:29.349Z,7.50
2022-10-06T17:21:59.552Z,6.70
2022-10-06T17:24:29.374Z,7.00
2022-10-06T17:26:57.668Z,7.50
2022-10-06T17:29:25.969Z,7.50
2022-10-06T17:31:58.202Z,7.10
2022-10-06T17:34:30.714Z,6.30
2022-10-06T17:37:01.205Z,6.80
2022-10-06T17:39:29.324Z,7.80
2022-10-06T17:41:57.332Z,14.20
2022-10-06T17:44:27.490Z,11.20
2022-10-06T17:47:00.089Z,10.60
2022-10-06T17:49:34.459Z,9.70
2022-10-06T17:52:03.713Z,8.00
2022-10-06T17:54:32.957Z,9.10
2022-10-06T17:57:00.328Z,9.70
2022-10-06T17:59:30.035Z,10.60
2022-10-06T18:02:00.729Z,13.80
2022-10-06T18:04:29.102Z,15.70
2022-10-06T18:06:56.984Z,15.80
2022-10-06T18:09:24.649Z,14.00
2022-10-06T18:11:56.246Z,19.10
2022-10-06T18:14:32.879Z,23.40
2022-10-06T18:17:02.124Z,20.50
2022-10-06T18:19:35.017Z,20.30
2022-10-06T18:22:09.535Z,19.80
2022-10-06T18:24:36.979Z,20.80
2022-10-06T18:27:05.873Z,21.70
2022-10-06T18:29:35.753Z,23.00
2022-10-06T18:36:12.988Z,20.20
2022-10-06T18:37:42.163Z,20.50
2022-10-06T18:40:10.855Z,19.40
2022-10-06T18:42:40.351Z,18.70
2022-10-06T18:45:28.784Z,18.80
2022-10-06T18:48:15.085Z,17.90
2022-10-06T18:50:42.444Z,17.30
2022-10-06T18:53:09.834Z,17.00
2022-10-06T18:55:37.153Z,16.30
2022-10-06T18:58:04.898Z,15.40
2022-10-06T19:00:32.845Z,14.30
2022-10-06T19:03:00.435Z,14.60
2022-10-06T19:05:27.761Z,14.00
2022-10-06T19:07:55.279Z,16.00
2022-10-06T19:10:22.724Z,15.30
2022-10-06T19:12:50.061Z,15.40
2022-10-06T19:15:20.675Z,13.80
2022-10-06T19:17:49.605Z,13.90
2022-10-06T19:20:17.818Z,11.60
2022-10-06T19:22:46.027Z,10.70
2022-10-06T19:25:14.346Z,9.90
2022-10-06T19:27:42.110Z,9.70
2022-10-06T19:30:10.566Z,10.20
2022-10-06T19:32:38.347Z,10.90
2022-10-06T19:35:10.159Z,11.90
2022-10-06T19:37:38.845Z,12.10
2022-10-06T19:40:08.269Z,10.70
2022-10-06T19:42:48.085Z,10.90
2022-10-06T19:45:16.362Z,10.30
2022-10-06T19:47:44.527Z,11.10
2022-10-06T19:50:12.997Z,10.40
2022-10-06T19:52:41.556Z,10.60
2022-10-06T19:55:09.145Z,10.00
2022-10-06T19:57:36.644Z,10.60
2022-10-06T20:00:06.008Z,10.90
2022-10-06T20:02:43.842Z,11.30
2022-10-06T20:05:15.332Z,12.60
2022-10-06T20:10:12.779Z,10.90
2022-10-06T20:12:40.995Z,12.20
2022-10-06T20:15:09.504Z,9.30
2022-10-06T20:17:37.490Z,9.60
2022-10-06T20:20:05.629Z,8.60
2022-10-06T20:22:32.805Z,8.70
2022-10-06T20:25:02.061Z,9.00
2022-10-06T20:27:29.719Z,9.00
2022-10-06T20:29:57.713Z,8.60
2022-10-06T20:32:25.001Z,8.20
2022-10-06T20:34:52.291Z,9.10
2022-10-06T20:37:19.647Z,9.00
2022-10-06T20:40:05.615Z,8.80
2022-10-06T20:42:33.308Z,9.90
2022-10-06T20:45:00.909Z,10.00
2022-10-06T20:47:29.313Z,10.30
2022-10-06T20:49:56.570Z,10.50
2022-10-06T20:52:23.938Z,10.80
2022-10-06T20:54:51.650Z,11.30
2022-10-06T20:57:19.422Z,11.10
2022-10-06T20:59:46.911Z,12.20
2022-10-06T21:02:14.397Z,11.10
2022-10-06T21:04:44.088Z,11.20
2022-10-06T21:07:11.467Z,10.50
2022-10-06T21:09:39.732Z,12.40
2022-10-06T21:12:07.247Z,11.70
2022-10-06T21:14:35.809Z,11.90
2022-10-06T21:17:03.742Z,11.70
2022-10-06T21:19:36.703Z,12.30
2022-10-06T21:22:04.562Z,11.70
2022-10-06T21:24:31.896Z,11.40
2022-10-06T21:26:59.623Z,10.90
2022-10-06T21:29:27.439Z,12.00
2022-10-06T21:31:54.892Z,11.40
2022-10-06T21:34:22.263Z,12.10
2022-10-06T21:36:50.216Z,10.20
2022-10-06T21:39:18.237Z,11.00
2022-10-06T21:41:45.587Z,10.90
2022-10-06T21:44:15.574Z,11.30
2022-10-06T21:46:52.743Z,11.20
2022-10-06T21:49:22.599Z,10.60
2022-10-06T21:51:55.834Z,10.20
2022-10-06T21:54:23.617Z,10.30
2022-10-06T21:56:51.838Z,10.60
2022-10-06T21:59:19.298Z,11.50
2022-10-06T22:01:49.663Z,11.30
2022-10-06T22:04:17.423Z,12.10
2022-10-06T22:06:49.602Z,11.30
2022-10-06T22:09:18.926Z,12.20
2022-10-06T22:11:46.363Z,11.60
2022-10-06T22:14:16.321Z,12.20
2022-10-06T22:16:44.391Z,10.20
2022-10-06T22:19:14.004Z,11.90
2022-10-06T22:21:43.805Z,11.40
2022-10-06T22:24:22.359Z,10.70
2022-10-06T22:26:50.068Z,11.60
2022-10-06T22:29:19.700Z,10.70
2022-10-06T22:31:48.282Z,11.10
2022-10-06T22:34:19.098Z,11.50
2022-10-06T22:36:46.923Z,11.30
2022-10-06T22:39:14.450Z,10.60
2022-10-06T22:41:42.096Z,10.90
2022-10-06T22:44:09.648Z,11.30
2022-10-06T22:46:37.791Z,11.00
2022-10-06T22:49:05.961Z,11.10
2022-10-06T22:51:33.666Z,11.30
2022-10-06T22:54:01.390Z,11.50
2022-10-06T22:56:31.997Z,11.60
2022-10-06T22:59:00.428Z,11.00
2022-10-06T23:01:29.444Z,11.40
2022-10-06T23:03:58.234Z,9.90
2022-10-06T23:06:26.195Z,11.10
2022-10-06T23:08:53.505Z,11.80
2022-10-06T23:11:21.725Z,11.00
2022-10-06T23:13:49.889Z,11.10
2022-10-06T23:16:19.426Z,10.40
2022-10-06T23:18:48.249Z,10.50
2022-10-06T23:21:23.509Z,11.50
2022-10-06T23:23:58.400Z,11.80
2022-10-06T23:26:26.436Z,11.30
2022-10-06T23:28:59.403Z,11.30
2022-10-06T23:31:28.795Z,9.90
2022-10-06T23:33:56.647Z,11.60
2022-10-06T23:36:24.154Z,10.70
2022-10-06T23:38:51.673Z,10.20
2022-10-06T23:41:19.358Z,10.50
2022-10-06T23:43:46.844Z,10.40
2022-10-06T23:46:14.812Z,11.40
2022-10-06T23:48:42.937Z,11.60
2022-10-06T23:51:14.649Z,11.00
2022-10-06T23:53:42.681Z,11.50
2022-10-06T23:56:10.556Z,10.80
2022-10-06T23:58:38.246Z,10.20
